createdAt,value
2019-05-16T00:00:01.365Z,98548.08
2019-05-16T00:02:33.923Z,98555.67
2019-05-16T00:05:08.370Z,98540.41
2019-05-16T00:07:42.660Z,98542.37
2019-05-16T00:10:18.719Z,98543.23
2019-05-16T00:12:51.878Z,98533.79
2019-05-16T00:15:24.560Z,98529.27
2019-05-16T00:17:58.653Z,98531.65
2019-05-16T00:20:33.120Z,98524.66
2019-05-16T00:23:07.789Z,98528.08
2019-05-16T00:25:39.755Z,98518.34
2019-05-16T00:28:11.973Z,98517.49
2019-05-16T00:30:44.097Z,98522.84
2019-05-16T00:33:18.390Z,98508.37
2019-05-16T00:36:02.153Z,98504.27
2019-05-16T00:38:27.612Z,98498.05
2019-05-16T00:40:59.876Z,98504.88
2019-05-16T00:43:32.250Z,98498.63
2019-05-16T00:46:04.632Z,98497.52
2019-05-16T00:48:38.182Z,98495.48
2019-05-16T00:51:11.365Z,98492.48
2019-05-16T00:53:43.826Z,98490.69
2019-05-16T00:56:18.624Z,98484.81
2019-05-16T00:58:51.979Z,98485.40
2019-05-16T01:01:24.377Z,98483.64
2019-05-16T01:03:58.505Z,98473.84
2019-05-16T01:06:30.500Z,98475.34
2019-05-16T01:09:02.880Z,98470.41
2019-05-16T01:11:38.039Z,98466.75
2019-05-16T01:14:10.015Z,98452.33
2019-05-16T01:16:42.319Z,98451.88
2019-05-16T01:19:14.737Z,98452.14
2019-05-16T01:21:48.359Z,98449.23
2019-05-16T01:24:22.152Z,98443.67
2019-05-16T01:26:57.780Z,98444.66
2019-05-16T01:29:30.823Z,98441.38
2019-05-16T01:32:03.227Z,98444.39
2019-05-16T01:34:37.808Z,98444.92
2019-05-16T01:37:10.268Z,98436.21
2019-05-16T01:39:43.026Z,98429.66
2019-05-16T01:42:18.283Z,98427.28
2019-05-16T01:44:51.158Z,98424.16
2019-05-16T01:47:24.311Z,98419.55
2019-05-16T01:49:58.042Z,98415.72
2019-05-16T01:52:30.853Z,98412.31
2019-05-16T01:55:03.787Z,98403.73
2019-05-16T01:57:35.844Z,98403.19
2019-05-16T02:00:09.459Z,98395.92
2019-05-16T02:02:42.381Z,98392.09
2019-05-16T02:05:14.438Z,98394.88
2019-05-16T02:07:48.022Z,98396.88
2019-05-16T02:10:21.322Z,98396.27
2019-05-16T02:12:54.088Z,98387.99
2019-05-16T02:15:28.510Z,98386.88
2019-05-16T02:18:01.203Z,98383.92
2019-05-16T02:20:33.725Z,98378.88
2019-05-16T02:23:08.077Z,98379.14
2019-05-16T02:25:40.940Z,98379.73
2019-05-16T02:28:13.886Z,98371.02
2019-05-16T02:30:46.538Z,98370.48
2019-05-16T02:33:21.309Z,98362.67
2019-05-16T02:35:55.807Z,98361.56
2019-05-16T02:38:31.501Z,98364.66
2019-05-16T02:41:03.392Z,98357.80
2019-05-16T02:43:36.168Z,98359.09
2019-05-16T02:46:11.897Z,98353.44
2019-05-16T02:48:43.874Z,98358.92
2019-05-16T02:51:16.039Z,98355.56
2019-05-16T02:53:50.998Z,98354.42
2019-05-16T02:56:23.294Z,98358.05
2019-05-16T02:58:55.967Z,98350.79
2019-05-16T03:01:31.507Z,98348.08
2019-05-16T03:04:03.190Z,98347.47
2019-05-16T03:06:41.033Z,98346.03
2019-05-16T03:09:13.309Z,98340.75
2019-05-16T03:11:46.736Z,98335.12
2019-05-16T03:14:21.697Z,98333.33
2019-05-16T03:16:57.208Z,98335.46
2019-05-16T03:19:33.007Z,98332.34
2019-05-16T03:22:07.750Z,98329.56
2019-05-16T03:24:42.067Z,98331.36
2019-05-16T03:27:15.091Z,98330.28
2019-05-16T03:29:50.479Z,98326.61
2019-05-16T03:32:24.094Z,98332.08
2019-05-16T03:34:56.325Z,98320.92
2019-05-16T03:37:30.738Z,98322.17
2019-05-16T03:40:03.134Z,98320.98
2019-05-16T03:42:36.261Z,98323.55
2019-05-16T03:45:10.540Z,98325.73
2019-05-16T03:47:42.758Z,98324.27
2019-05-16T03:50:15.517Z,98318.28
2019-05-16T03:52:50.802Z,98322.42
2019-05-16T03:55:23.783Z,98317.73
2019-05-16T03:57:56.756Z,98312.38
2019-05-16T04:00:53.054Z,98317.67
2019-05-16T04:03:28.425Z,98303.13
2019-05-16T04:06:01.163Z,98307.70
2019-05-16T04:08:34.353Z,98305.36
2019-05-16T04:11:07.184Z,98301.80
2019-05-16T04:13:41.169Z,98297.70
2019-05-16T04:16:13.936Z,98295.77
2019-05-16T04:18:46.710Z,98302.58
2019-05-16T04:21:21.917Z,98302.78
2019-05-16T04:23:53.147Z,98304.59
2019-05-16T04:26:25.794Z,98301.47
2019-05-16T04:29:00.781Z,98296.89
2019-05-16T04:31:33.409Z,98297.70
2019-05-16T04:34:05.803Z,98294.58
2019-05-16T04:36:40.549Z,98297.70
2019-05-16T04:39:12.892Z,98289.42
2019-05-16T04:41:45.274Z,98298.41
2019-05-16T04:44:21.062Z,98290.68
2019-05-16T04:46:54.289Z,98291.87
2019-05-16T04:49:26.895Z,98285.77
2019-05-16T04:52:00.586Z,98280.06
2019-05-16T04:54:41.876Z,98280.67
2019-05-16T04:57:13.544Z,98276.84
2019-05-16T04:59:46.017Z,98271.63
2019-05-16T05:02:21.079Z,98277.46
2019-05-16T05:04:52.153Z,98272.58
2019-05-16T05:07:25.527Z,98274.61
2019-05-16T05:10:00.405Z,98279.02
2019-05-16T05:12:32.378Z,98276.09
2019-05-16T05:15:05.200Z,98277.48
2019-05-16T05:17:40.917Z,98276.36
2019-05-16T05:20:12.552Z,98275.61
2019-05-16T05:22:45.211Z,98275.12
2019-05-16T05:25:20.240Z,98270.87
2019-05-16T05:27:52.303Z,98274.78
2019-05-16T05:30:24.587Z,98272.88
2019-05-16T05:32:56.891Z,98274.12
2019-05-16T05:35:31.090Z,98263.88
2019-05-16T05:38:04.339Z,98269.94
2019-05-16T05:40:36.503Z,98272.78
2019-05-16T05:43:10.555Z,98270.17
2019-05-16T05:45:43.025Z,98269.56
2019-05-16T05:48:16.221Z,98267.95
2019-05-16T05:50:50.671Z,98269.09
2019-05-16T05:53:23.761Z,98251.80
2019-05-16T05:55:54.771Z,98257.51
2019-05-16T05:58:30.502Z,98252.74
2019-05-16T06:01:02.037Z,98255.25
2019-05-16T06:03:34.556Z,98255.39
2019-05-16T06:06:07.368Z,98250.69
2019-05-16T06:08:41.019Z,98247.58
2019-05-16T06:11:14.311Z,98244.79
2019-05-16T06:13:46.803Z,98240.33
2019-05-16T06:16:20.474Z,98235.74
2019-05-16T06:18:56.712Z,98232.99
2019-05-16T06:21:33.092Z,98238.84
2019-05-16T06:24:03.236Z,98231.59
2019-05-16T06:26:35.856Z,98234.80
2019-05-16T06:29:10.489Z,98234.05
2019-05-16T06:31:43.036Z,98232.86
2019-05-16T06:34:15.538Z,98234.91
2019-05-16T06:36:47.862Z,98224.08
2019-05-16T06:39:20.311Z,98228.30
2019-05-16T06:41:53.001Z,98229.92
2019-05-16T06:44:25.684Z,98225.66
2019-05-16T06:47:12.618Z,98231.79
2019-05-16T06:49:32.852Z,98223.81
2019-05-16T06:52:19.740Z,98217.95
2019-05-16T06:54:56.482Z,98220.66
2019-05-16T06:57:30.156Z,98217.47
2019-05-16T07:00:03.245Z,98217.59
2019-05-16T07:02:35.989Z,98215.89
2019-05-16T07:05:10.176Z,98208.24
2019-05-16T07:07:46.401Z,98211.36
2019-05-16T07:10:20.576Z,98206.36
2019-05-16T07:12:53.212Z,98204.83
2019-05-16T07:15:25.295Z,98197.89
2019-05-16T07:17:59.726Z,98205.91
2019-05-16T07:20:32.786Z,98203.43
2019-05-16T07:23:07.391Z,98203.14
2019-05-16T07:25:43.071Z,98208.45
2019-05-16T07:28:15.976Z,98206.45
2019-05-16T07:30:50.055Z,98202.63
2019-05-16T07:33:22.426Z,98192.73
2019-05-16T07:35:55.177Z,98193.03
2019-05-16T07:38:27.976Z,98184.94
2019-05-16T07:41:00.366Z,98188.89
2019-05-16T07:43:32.799Z,98182.31
2019-05-16T07:46:05.216Z,98180.94
2019-05-16T07:48:40.385Z,98181.19
2019-05-16T07:51:12.551Z,98177.95
2019-05-16T07:53:44.946Z,98174.52
2019-05-16T07:56:17.303Z,98171.59
2019-05-16T07:58:50.867Z,98170.40
2019-05-16T08:01:23.387Z,98166.95
2019-05-16T08:04:00.086Z,98169.52
2019-05-16T08:06:34.142Z,98172.14
2019-05-16T08:09:12.028Z,98170.82
2019-05-16T08:11:43.980Z,98170.33
2019-05-16T08:14:16.665Z,98165.69
2019-05-16T08:16:51.719Z,98163.22
2019-05-16T08:19:25.448Z,98161.13
2019-05-16T08:21:58.207Z,98161.49
2019-05-16T08:24:36.054Z,98157.93
2019-05-16T08:27:06.674Z,98160.83
2019-05-16T08:29:40.402Z,98159.42
2019-05-16T08:32:13.878Z,98158.28
2019-05-16T08:34:44.941Z,98163.01
2019-05-16T08:39:51.444Z,98159.64
2019-05-16T08:42:23.867Z,98146.34
2019-05-16T08:45:01.167Z,98152.95
2019-05-16T08:47:32.437Z,98142.09
2019-05-16T08:50:12.677Z,98137.09
2019-05-16T08:52:43.455Z,98141.58
2019-05-16T08:55:16.713Z,98129.60
2019-05-16T08:57:53.036Z,98135.17
2019-05-16T09:00:26.472Z,98126.98
2019-05-16T09:03:01.774Z,98129.72
2019-05-16T09:05:34.522Z,98133.05
2019-05-16T09:08:09.027Z,98133.66
2019-05-16T09:10:28.429Z,98161.88
2019-05-16T09:10:55.772Z,98128.68
2019-05-16T09:13:20.259Z,98121.52
2019-05-16T09:15:51.604Z,98128.41
2019-05-16T09:18:23.642Z,98121.81
2019-05-16T09:20:57.831Z,98114.52
2019-05-16T09:23:31.407Z,98113.38
2019-05-16T09:26:07.068Z,98113.73
2019-05-16T09:28:38.958Z,98115.54
2019-05-16T09:31:09.506Z,98109.09
2019-05-16T09:33:40.427Z,98111.02
2019-05-16T09:36:11.413Z,98112.48
2019-05-16T09:38:44.304Z,98113.81
2019-05-16T09:41:16.881Z,98111.54
2019-05-16T09:43:49.017Z,98108.73
2019-05-16T09:46:20.047Z,98106.47
2019-05-16T09:49:13.010Z,98102.91
2019-05-16T09:51:27.176Z,98104.08
2019-05-16T09:53:58.391Z,98103.63
2019-05-16T09:56:29.884Z,98104.08
2019-05-16T09:59:00.592Z,98112.11
2019-05-16T10:01:31.279Z,98100.80
2019-05-16T10:04:03.579Z,98104.17
2019-05-16T10:06:36.933Z,98105.36
2019-05-16T10:09:08.059Z,98102.14
2019-05-16T10:11:41.656Z,98098.19
2019-05-16T10:14:12.324Z,98094.37
2019-05-16T10:16:43.368Z,98107.22
2019-05-16T10:19:16.902Z,98099.03
2019-05-16T10:21:47.440Z,98098.38
2019-05-16T10:24:18.118Z,98094.34
2019-05-16T10:26:53.810Z,98095.70
2019-05-16T10:29:21.557Z,98097.13
2019-05-16T10:31:53.570Z,98093.11
2019-05-16T10:34:26.639Z,98093.84
2019-05-16T10:37:01.152Z,98095.47
2019-05-16T10:39:31.831Z,98099.34
2019-05-16T10:42:03.745Z,98086.66
2019-05-16T10:44:38.524Z,98089.41
2019-05-16T10:47:08.008Z,98085.73
2019-05-16T10:49:41.867Z,98079.19
2019-05-16T10:52:12.690Z,98074.28
2019-05-16T10:54:57.288Z,98077.80
2019-05-16T10:57:18.684Z,98081.81
2019-05-16T11:00:05.308Z,98086.38
2019-05-16T11:02:27.558Z,98083.58
2019-05-16T11:05:08.435Z,98079.86
2019-05-16T11:07:31.261Z,98079.00
2019-05-16T11:10:03.716Z,98080.23
2019-05-16T11:12:47.551Z,98076.29
2019-05-16T11:15:12.495Z,98079.89
2019-05-16T11:17:43.153Z,98077.50
2019-05-16T11:20:19.663Z,98074.83
2019-05-16T11:22:48.732Z,98073.32
2019-05-16T11:25:28.733Z,98074.80
2019-05-16T11:27:53.556Z,98073.39
2019-05-16T11:30:27.821Z,98074.47
2019-05-16T11:32:57.831Z,98076.52
2019-05-16T11:35:29.307Z,98071.19
2019-05-16T11:38:00.742Z,98071.31
2019-05-16T11:40:32.018Z,98070.44
2019-05-16T11:43:11.409Z,98071.08
2019-05-16T11:45:37.028Z,98065.56
2019-05-16T11:48:08.457Z,98070.91
2019-05-16T11:50:40.316Z,98066.75
2019-05-16T11:53:11.357Z,98064.17
2019-05-16T11:55:52.114Z,98069.14
2019-05-16T11:58:18.005Z,98062.61
2019-05-16T12:00:48.558Z,98058.79
2019-05-16T12:03:19.747Z,98063.16
2019-05-16T12:05:51.131Z,98057.80
2019-05-16T12:08:21.819Z,98053.36
2019-05-16T12:10:53.172Z,98050.27
2019-05-16T12:13:28.545Z,98048.99
2019-05-16T12:15:56.814Z,98048.36
2019-05-16T12:18:27.500Z,98053.30
2019-05-16T12:20:58.771Z,98051.97
2019-05-16T12:23:29.746Z,98051.17
2019-05-16T12:26:00.669Z,98051.52
2019-05-16T12:28:32.208Z,98060.17
2019-05-16T12:31:03.073Z,98061.33
2019-05-16T12:33:37.027Z,98047.02
2019-05-16T12:36:07.993Z,98051.38
2019-05-16T12:38:39.006Z,98051.33
2019-05-16T12:41:10.034Z,98046.67
2019-05-16T12:43:49.314Z,98049.36
2019-05-16T12:46:14.337Z,98040.02
2019-05-16T12:48:47.453Z,98039.37
2019-05-16T12:51:18.209Z,98042.72
2019-05-16T12:53:49.870Z,98038.52
2019-05-16T12:56:39.950Z,98033.36
2019-05-16T12:59:12.082Z,98039.88
2019-05-16T13:01:43.484Z,98036.86
2019-05-16T13:04:14.256Z,98030.88
2019-05-16T13:06:47.093Z,98027.57
2019-05-16T13:09:18.602Z,98026.73
2019-05-16T13:11:49.898Z,98028.08
2019-05-16T13:14:21.221Z,98025.75
2019-05-16T13:16:52.210Z,98024.10
2019-05-16T13:19:22.979Z,98019.11
2019-05-16T13:21:53.802Z,98015.45
2019-05-16T13:24:27.663Z,98009.78
2019-05-16T13:26:57.490Z,98010.47
2019-05-16T13:29:28.513Z,98008.78
2019-05-16T13:31:59.515Z,98001.61
2019-05-16T13:34:30.612Z,97993.95
2019-05-16T13:37:01.356Z,97996.14
2019-05-16T13:39:32.028Z,97987.80
2019-05-16T13:42:04.236Z,97990.44
2019-05-16T13:44:37.509Z,97987.27
2019-05-16T13:47:07.845Z,97985.45
2019-05-16T13:49:39.122Z,97986.18
2019-05-16T13:52:10.996Z,97982.11
2019-05-16T13:54:43.946Z,97984.50
2019-05-16T13:57:17.173Z,97975.02
2019-05-16T13:59:48.059Z,97973.52
2019-05-16T14:02:18.858Z,97973.23
2019-05-16T14:04:51.869Z,97973.73
2019-05-16T14:07:23.217Z,97975.20
2019-05-16T14:09:54.232Z,97978.19
2019-05-16T14:12:26.791Z,97968.06
2019-05-16T14:14:59.083Z,97974.20
2019-05-16T14:17:30.018Z,97975.53
2019-05-16T14:20:01.672Z,97974.55
2019-05-16T14:22:33.197Z,97969.91
2019-05-16T14:25:07.105Z,97973.34
2019-05-16T14:27:40.000Z,97973.19
2019-05-16T14:30:17.547Z,97964.56
2019-05-16T14:32:50.744Z,97965.52
2019-05-16T14:35:21.237Z,97962.86
2019-05-16T14:37:57.455Z,97958.92
2019-05-16T14:40:24.781Z,97958.87
2019-05-16T14:42:58.278Z,97962.53
2019-05-16T14:45:30.252Z,97957.73
2019-05-16T14:48:00.964Z,97953.55
2019-05-16T14:50:31.749Z,97956.09
2019-05-16T14:53:02.843Z,97954.41
2019-05-16T14:55:33.956Z,97955.86
2019-05-16T14:58:07.162Z,97951.26
2019-05-16T15:00:38.443Z,97952.36
2019-05-16T15:03:11.602Z,97952.07
2019-05-16T15:05:43.238Z,97954.27
2019-05-16T15:08:14.182Z,97950.11
2019-05-16T15:10:46.841Z,97947.95
2019-05-16T15:13:17.964Z,97948.30
2019-05-16T15:15:48.880Z,97950.58
2019-05-16T15:18:20.133Z,97954.73
2019-05-16T15:20:51.169Z,97949.70
2019-05-16T15:23:22.124Z,97950.79
2019-05-16T15:25:53.336Z,97950.38
2019-05-16T15:28:27.695Z,97953.84
2019-05-16T15:30:57.522Z,97950.70
2019-05-16T15:33:28.615Z,97953.20
2019-05-16T15:36:02.584Z,97947.20
2019-05-16T15:38:36.406Z,97946.88
2019-05-16T15:41:08.302Z,97943.06
2019-05-16T15:43:39.665Z,97942.38
2019-05-16T15:46:11.129Z,97942.66
2019-05-16T15:48:43.294Z,97940.77
2019-05-16T15:51:16.610Z,97936.18
2019-05-16T15:53:47.740Z,97934.61
2019-05-16T15:56:19.070Z,97938.07
2019-05-16T15:58:49.770Z,97932.84
2019-05-16T16:01:20.456Z,97930.67
2019-05-16T16:03:53.143Z,97930.71
2019-05-16T16:06:24.078Z,97927.86
2019-05-16T16:08:56.047Z,97926.56
2019-05-16T16:11:27.353Z,97930.42
2019-05-16T16:13:58.680Z,97919.96
2019-05-16T16:16:29.365Z,97922.87
2019-05-16T16:19:00.687Z,97922.53
2019-05-16T16:21:31.845Z,97916.91
2019-05-16T16:24:05.150Z,97916.98
2019-05-16T16:26:38.188Z,97911.00
2019-05-16T16:29:08.707Z,97916.92
2019-05-16T16:31:40.000Z,97916.42
2019-05-16T16:34:11.366Z,97917.11
2019-05-16T16:36:42.822Z,97914.42
2019-05-16T16:39:14.074Z,97919.72
2019-05-16T16:41:47.575Z,97914.91
2019-05-16T16:44:18.237Z,97915.90
2019-05-16T16:46:50.186Z,97902.91
2019-05-16T16:49:21.675Z,97905.28
2019-05-16T16:51:52.743Z,97901.62
2019-05-16T16:54:23.840Z,97908.75
2019-05-16T16:56:55.630Z,97909.27
2019-05-16T16:59:28.067Z,97905.23
2019-05-16T17:01:59.664Z,97914.00
2019-05-16T17:04:32.719Z,97912.30
2019-05-16T17:07:03.769Z,97915.65
2019-05-16T17:09:37.053Z,97914.37
2019-05-16T17:12:07.477Z,97914.52
2019-05-16T17:14:38.739Z,97911.66
2019-05-16T17:17:09.467Z,97907.13
2019-05-16T17:19:41.348Z,97914.10
2019-05-16T17:22:17.371Z,97913.46
2019-05-16T17:24:47.169Z,97914.63
2019-05-16T17:27:18.706Z,97912.98
2019-05-16T17:29:49.656Z,97910.16
2019-05-16T17:32:20.583Z,97912.28
2019-05-16T17:34:51.537Z,97902.58
2019-05-16T17:37:22.935Z,97905.67
2019-05-16T17:39:54.036Z,97905.12
2019-05-16T17:42:30.918Z,97900.42
2019-05-16T17:45:02.020Z,97901.89
2019-05-16T17:47:32.999Z,97897.91
2019-05-16T17:50:06.217Z,97905.78
2019-05-16T17:52:37.351Z,97906.80
2019-05-16T17:55:08.537Z,97894.97
2019-05-16T17:57:39.603Z,97900.95
2019-05-16T18:00:12.780Z,97899.45
2019-05-16T18:02:43.282Z,97904.06
2019-05-16T18:05:16.744Z,97901.97
2019-05-16T18:07:51.356Z,97902.66
2019-05-16T18:10:22.953Z,97904.59
2019-05-16T18:12:56.859Z,97902.06
2019-05-16T18:15:27.547Z,97907.05
2019-05-16T18:17:59.002Z,97909.67
2019-05-16T18:20:30.290Z,97904.20
2019-05-16T18:23:01.294Z,97907.99
2019-05-16T18:25:33.213Z,97901.75
2019-05-16T18:28:07.700Z,97907.66
2019-05-16T18:30:38.023Z,97908.70
2019-05-16T18:33:09.787Z,97908.05
2019-05-16T18:35:40.842Z,97904.94
2019-05-16T18:38:13.520Z,97906.95
2019-05-16T18:40:47.365Z,97904.73
2019-05-16T18:43:21.235Z,97904.20
2019-05-16T18:45:53.758Z,97907.89
2019-05-16T18:48:27.290Z,97908.75
2019-05-16T18:50:58.983Z,97905.97
2019-05-16T18:53:29.984Z,97908.52
2019-05-16T18:56:00.987Z,97902.02
2019-05-16T18:58:31.918Z,97906.08
2019-05-16T19:01:02.964Z,97901.80
2019-05-16T19:03:34.028Z,97899.51
2019-05-16T19:06:07.912Z,97895.79
2019-05-16T19:08:40.347Z,97896.89
2019-05-16T19:11:11.009Z,97901.47
2019-05-16T19:13:42.030Z,97901.59
2019-05-16T19:16:13.343Z,97899.48
2019-05-16T19:18:44.047Z,97906.02
2019-05-16T19:21:16.892Z,97904.75
2019-05-16T19:23:47.711Z,97899.85
2019-05-16T19:26:19.709Z,97898.08
2019-05-16T19:28:51.335Z,97894.25
2019-05-16T19:31:22.865Z,97891.10
2019-05-16T19:33:56.526Z,97888.27
2019-05-16T19:36:27.252Z,97885.92
2019-05-16T19:38:58.677Z,97884.09
2019-05-16T19:41:29.346Z,97886.52
2019-05-16T19:44:01.112Z,97878.91
2019-05-16T19:46:32.203Z,97873.14
2019-05-16T19:49:06.351Z,97877.74
2019-05-16T19:51:36.792Z,97866.73
2019-05-16T19:54:09.736Z,97876.27
2019-05-16T19:56:42.616Z,97878.94
2019-05-16T19:59:13.759Z,97878.44
2019-05-16T20:01:46.361Z,97876.27
2019-05-16T20:04:18.519Z,97871.67
2019-05-16T20:06:49.299Z,97869.68
2019-05-16T20:09:20.248Z,97868.42
2019-05-16T20:11:51.569Z,97868.72
2019-05-16T20:14:23.132Z,97877.30
2019-05-16T20:16:56.658Z,97868.75
2019-05-16T20:19:27.635Z,97871.39
2019-05-16T20:21:58.620Z,97865.20
2019-05-16T20:24:32.238Z,97862.25
2019-05-16T20:27:05.325Z,97865.14
2019-05-16T20:29:38.244Z,97862.28
2019-05-16T20:32:11.453Z,97864.30
2019-05-16T20:34:42.564Z,97867.30
2019-05-16T20:37:13.647Z,97862.84
2019-05-16T20:39:46.618Z,97862.09
2019-05-16T20:42:18.234Z,97862.08
2019-05-16T20:44:49.982Z,97857.71
2019-05-16T20:47:21.007Z,97852.39
2019-05-16T20:49:52.688Z,97852.69
2019-05-16T20:52:23.827Z,97851.72
2019-05-16T20:54:57.635Z,97853.26
2019-05-16T20:57:27.904Z,97855.21
2019-05-16T20:59:59.070Z,97849.77
2019-05-16T21:02:30.331Z,97849.14
2019-05-16T21:05:02.012Z,97851.00
2019-05-16T21:07:33.131Z,97850.49
2019-05-16T21:10:04.344Z,97844.53
2019-05-16T21:12:37.302Z,97851.96
2019-05-16T21:15:10.271Z,97839.75
2019-05-16T21:17:41.342Z,97841.28
2019-05-16T21:20:12.193Z,97831.50
2019-05-16T21:22:43.247Z,97833.61
2019-05-16T21:25:18.572Z,97834.97
2019-05-16T21:27:48.846Z,97830.13
2019-05-16T21:30:20.080Z,97828.47
2019-05-16T21:32:51.250Z,97828.02
2019-05-16T21:35:22.300Z,97825.04
2019-05-16T21:37:53.416Z,97823.30
2019-05-16T21:40:26.530Z,97823.33
2019-05-16T21:42:58.783Z,97818.16
2019-05-16T21:45:43.156Z,97820.08
2019-05-16T21:48:16.756Z,97820.68
2019-05-16T21:50:48.805Z,97821.37
2019-05-16T21:53:19.889Z,97815.06
2019-05-16T21:55:51.300Z,97809.94
2019-05-16T21:58:22.684Z,97808.31
2019-05-16T22:00:57.879Z,97806.52
2019-05-16T22:03:28.592Z,97810.09
2019-05-16T22:06:01.578Z,97804.03
2019-05-16T22:08:32.928Z,97801.49
2019-05-16T22:11:03.900Z,97804.50
2019-05-16T22:13:37.023Z,97797.44
2019-05-16T22:16:08.359Z,97798.00
2019-05-16T22:18:39.083Z,97798.74
2019-05-16T22:21:11.374Z,97795.36
2019-05-16T22:23:42.887Z,97794.67
2019-05-16T22:26:13.823Z,97797.23
2019-05-16T22:28:46.722Z,97795.72
2019-05-16T22:31:17.950Z,97792.76
2019-05-16T22:33:49.980Z,97793.35
2019-05-16T22:36:20.932Z,97796.23
2019-05-16T22:38:52.736Z,97796.58
2019-05-16T22:41:26.528Z,97796.25
2019-05-16T22:43:57.690Z,97794.02
2019-05-16T22:46:29.330Z,97790.95
2019-05-16T22:49:00.679Z,97788.31
2019-05-16T22:51:31.933Z,97787.27
2019-05-16T22:54:02.973Z,97779.09
2019-05-16T22:56:33.970Z,97783.13
2019-05-16T22:59:07.057Z,97769.08
2019-05-16T23:01:37.843Z,97768.14
2019-05-16T23:04:08.880Z,97768.73
2019-05-16T23:06:39.659Z,97767.77
2019-05-16T23:09:10.830Z,97763.29
2019-05-16T23:11:42.127Z,97766.11
2019-05-16T23:14:17.083Z,97766.78
2019-05-16T23:16:47.637Z,97759.19
2019-05-16T23:19:18.654Z,97761.30
2019-05-16T23:21:49.887Z,97756.72
2019-05-16T23:24:21.141Z,97758.17
2019-05-16T23:26:52.416Z,97754.20
2019-05-16T23:29:23.999Z,97748.75
2019-05-16T23:31:56.446Z,97749.90
2019-05-16T23:34:27.764Z,97740.23
2019-05-16T23:36:59.366Z,97740.46
2019-05-16T23:39:30.041Z,97736.34
2019-05-16T23:42:01.634Z,97737.69
2019-05-16T23:44:32.629Z,97737.44
2019-05-16T23:47:03.636Z,97732.45
2019-05-16T23:49:36.664Z,97732.45
2019-05-16T23:52:07.646Z,97727.53
2019-05-16T23:54:38.703Z,97723.51
2019-05-16T23:57:09.839Z,97721.33
2019-05-16T23:59:40.587Z,97712.42
